createdAt,value
2016-09-27T00:00:21.093Z,14.95
2016-09-27T00:01:01.635Z,14.94
2016-09-27T00:01:42.177Z,14.91
2016-09-27T00:02:22.717Z,15.01
2016-09-27T00:03:03.266Z,14.94
2016-09-27T00:03:43.817Z,14.95
2016-09-27T00:04:24.354Z,14.95
2016-09-27T00:05:04.898Z,14.92
2016-09-27T00:05:45.449Z,14.98
2016-09-27T00:06:25.997Z,14.96
2016-09-27T00:07:06.536Z,14.95
2016-09-27T00:07:47.081Z,14.92
2016-09-27T00:08:27.623Z,14.98
2016-09-27T00:09:08.165Z,14.98
2016-09-27T00:09:48.730Z,14.98
2016-09-27T00:10:29.263Z,14.98
2016-09-27T00:11:09.802Z,14.99
2016-09-27T00:11:50.349Z,14.94
2016-09-27T00:12:30.893Z,14.92
2016-09-27T00:13:11.437Z,14.91
2016-09-27T00:13:51.974Z,14.95
2016-09-27T00:14:32.507Z,14.96
2016-09-27T00:15:13.051Z,14.95
2016-09-27T00:15:53.594Z,14.94
2016-09-27T00:16:34.136Z,14.95
2016-09-27T00:17:14.683Z,14.92
2016-09-27T00:17:55.223Z,14.92
2016-09-27T00:18:35.770Z,14.91
2016-09-27T00:19:16.312Z,14.92
2016-09-27T00:19:56.849Z,14.95
2016-09-27T00:20:37.393Z,14.89
2016-09-27T00:21:17.938Z,14.81
2016-09-27T00:21:58.483Z,14.86
2016-09-27T00:22:39.036Z,14.84
2016-09-27T00:23:19.576Z,14.84
2016-09-27T00:24:00.118Z,14.77
2016-09-27T00:24:40.654Z,14.78
2016-09-27T00:25:21.200Z,14.8
2016-09-27T00:26:01.742Z,14.81
2016-09-27T00:26:42.279Z,14.78
2016-09-27T00:27:22.826Z,14.72
2016-09-27T00:28:03.368Z,14.69
2016-09-27T00:28:43.909Z,14.73
2016-09-27T00:29:24.459Z,14.7
2016-09-27T00:30:05.045Z,14.68
2016-09-27T00:30:45.609Z,14.62
2016-09-27T00:31:26.181Z,14.72
2016-09-27T00:32:06.731Z,14.62
2016-09-27T00:32:47.276Z,14.7
2016-09-27T00:33:27.822Z,14.72
2016-09-27T00:34:08.364Z,14.75
2016-09-27T00:34:48.910Z,14.69
2016-09-27T00:35:29.450Z,14.69
2016-09-27T00:36:09.989Z,14.7
2016-09-27T00:36:50.531Z,14.75
2016-09-27T00:37:31.070Z,14.72
2016-09-27T00:38:11.620Z,14.8
2016-09-27T00:38:52.172Z,14.73
2016-09-27T00:39:32.753Z,14.72
2016-09-27T00:40:13.271Z,14.65
2016-09-27T00:40:53.828Z,14.65
2016-09-27T00:41:34.373Z,14.68
2016-09-27T00:42:14.929Z,14.65
2016-09-27T00:42:55.472Z,14.65
2016-09-27T00:43:36.018Z,14.78
2016-09-27T00:44:16.563Z,14.65
2016-09-27T00:44:57.145Z,14.69
2016-09-27T00:45:37.684Z,14.72
2016-09-27T00:46:18.228Z,14.68
2016-09-27T00:46:58.778Z,14.61
2016-09-27T00:47:39.312Z,14.62
2016-09-27T00:48:19.862Z,14.65
2016-09-27T00:49:00.411Z,14.55
2016-09-27T00:49:40.948Z,14.6
2016-09-27T00:50:21.494Z,14.58
2016-09-27T00:51:02.043Z,14.52
2016-09-27T00:51:42.619Z,14.6
2016-09-27T00:52:23.168Z,14.57
2016-09-27T00:53:03.724Z,14.54
2016-09-27T00:53:44.274Z,14.45
2016-09-27T00:54:24.818Z,14.47
2016-09-27T00:55:05.361Z,14.46
2016-09-27T00:55:45.903Z,14.46
2016-09-27T00:56:26.448Z,14.54
2016-09-27T00:57:06.988Z,14.39
2016-09-27T00:57:47.529Z,14.37
2016-09-27T00:58:28.066Z,14.4
2016-09-27T00:59:08.649Z,14.37
2016-09-27T00:59:49.190Z,14.39
2016-09-27T01:00:29.760Z,14.33
2016-09-27T01:01:10.307Z,14.28
2016-09-27T01:01:50.854Z,14.35
2016-09-27T01:02:31.430Z,14.33
2016-09-27T01:03:11.970Z,14.22
2016-09-27T01:03:52.513Z,14.21
2016-09-27T01:04:33.072Z,14.25
2016-09-27T01:05:13.673Z,14.22
2016-09-27T01:05:54.165Z,14.28
2016-09-27T01:06:34.734Z,14.24
2016-09-27T01:07:15.286Z,14.24
2016-09-27T01:07:55.834Z,14.22
2016-09-27T01:08:36.378Z,14.21
2016-09-27T01:09:16.926Z,14.21
2016-09-27T01:09:57.474Z,14.21
2016-09-27T01:10:38.123Z,14.21
2016-09-27T01:11:18.676Z,14.21
2016-09-27T01:11:59.224Z,14.14
2016-09-27T01:12:39.771Z,14.15
2016-09-27T01:13:20.328Z,14.15
2016-09-27T01:14:00.874Z,14.07
2016-09-27T01:14:41.415Z,14.03
2016-09-27T01:15:21.977Z,14.02
2016-09-27T01:16:02.605Z,14.03
2016-09-27T01:16:43.074Z,14
2016-09-27T01:17:23.647Z,14
2016-09-27T01:18:04.189Z,14.09
2016-09-27T01:18:44.737Z,13.99
2016-09-27T01:19:25.289Z,13.96
2016-09-27T01:20:05.831Z,13.91
2016-09-27T01:20:46.384Z,13.96
2016-09-27T01:21:26.924Z,13.96
2016-09-27T01:22:07.466Z,13.92
2016-09-27T01:22:48.014Z,13.82
2016-09-27T01:23:28.549Z,13.84
2016-09-27T01:24:09.099Z,13.88
2016-09-27T01:24:49.645Z,13.89
2016-09-27T01:25:30.193Z,13.87
2016-09-27T01:26:10.718Z,13.91
2016-09-27T01:26:51.265Z,13.85
2016-09-27T01:27:31.812Z,13.84
2016-09-27T01:28:12.358Z,13.79
2016-09-27T01:28:52.911Z,13.82
2016-09-27T01:29:33.455Z,13.82
2016-09-27T01:30:14.015Z,13.78
2016-09-27T01:30:54.566Z,13.71
2016-09-27T01:31:35.112Z,13.75
2016-09-27T01:32:15.657Z,13.7
2016-09-27T01:32:56.200Z,13.77
2016-09-27T01:33:36.757Z,13.66
2016-09-27T01:34:17.299Z,13.69
2016-09-27T01:34:57.840Z,13.66
2016-09-27T01:35:38.399Z,13.69
2016-09-27T01:36:18.950Z,13.66
2016-09-27T01:36:59.507Z,13.63
2016-09-27T01:37:40.062Z,13.63
2016-09-27T01:38:20.602Z,13.6
2016-09-27T01:39:01.141Z,13.57
2016-09-27T01:39:41.682Z,13.57
2016-09-27T01:40:22.225Z,13.52
2016-09-27T01:41:02.762Z,13.54
2016-09-27T01:41:43.301Z,13.51
2016-09-27T01:42:23.844Z,13.48
2016-09-27T01:43:04.387Z,13.51
2016-09-27T01:43:44.933Z,13.48
2016-09-27T01:44:25.476Z,13.55
2016-09-27T01:45:06.027Z,13.44
2016-09-27T01:45:46.570Z,13.45
2016-09-27T01:46:27.124Z,13.42
2016-09-27T01:47:07.672Z,13.44
2016-09-27T01:47:48.215Z,13.42
2016-09-27T01:48:28.758Z,13.38
2016-09-27T01:49:09.297Z,13.41
2016-09-27T01:49:49.826Z,13.42
2016-09-27T01:50:30.389Z,13.45
2016-09-27T01:51:10.939Z,13.3
2016-09-27T01:51:51.472Z,13.3
2016-09-27T01:52:32.018Z,13.29
2016-09-27T01:53:12.567Z,13.32
2016-09-27T01:53:53.117Z,13.29
2016-09-27T01:54:33.656Z,13.44
2016-09-27T01:55:14.196Z,13.32
2016-09-27T01:55:54.732Z,13.28
2016-09-27T01:56:35.277Z,13.25
2016-09-27T01:57:15.821Z,13.23
2016-09-27T01:57:56.359Z,13.29
2016-09-27T01:58:36.905Z,13.3
2016-09-27T01:59:17.442Z,13.28
2016-09-27T01:59:57.996Z,13.28
2016-09-27T02:00:38.538Z,13.23
2016-09-27T02:01:19.085Z,13.26
2016-09-27T02:01:59.684Z,13.25
2016-09-27T02:02:40.168Z,13.22
2016-09-27T02:03:20.742Z,13.14
2016-09-27T02:04:01.322Z,13.2
2016-09-27T02:04:41.837Z,13.19
2016-09-27T02:05:22.385Z,13.19
2016-09-27T02:06:02.921Z,13.19
2016-09-27T02:06:43.473Z,13.08
2016-09-27T02:07:24.014Z,13.14
2016-09-27T02:08:04.555Z,13.11
2016-09-27T02:08:45.108Z,13.1
2016-09-27T02:09:25.694Z,13.08
2016-09-27T02:10:06.262Z,13.08
2016-09-27T02:10:46.831Z,13.07
2016-09-27T02:11:27.389Z,13.04
2016-09-27T02:12:07.934Z,13.04
2016-09-27T02:12:48.473Z,13.01
2016-09-27T02:13:29.017Z,13.03
2016-09-27T02:14:10.471Z,13.01
2016-09-27T02:14:51.007Z,13.04
2016-09-27T02:15:31.552Z,13.01
2016-09-27T02:16:12.085Z,13.05
2016-09-27T02:16:52.641Z,12.93
2016-09-27T02:17:33.190Z,12.96
2016-09-27T02:18:13.733Z,12.96
2016-09-27T02:18:54.273Z,12.9
2016-09-27T02:19:34.819Z,12.97
2016-09-27T02:20:15.367Z,12.93
2016-09-27T02:20:55.907Z,12.96
2016-09-27T02:21:36.471Z,12.86
2016-09-27T02:22:17.030Z,12.89
2016-09-27T02:22:57.606Z,12.89
2016-09-27T02:23:38.108Z,12.92
2016-09-27T02:24:18.650Z,12.82
2016-09-27T02:24:59.181Z,12.82
2016-09-27T02:25:39.715Z,12.89
2016-09-27T02:26:20.264Z,12.82
2016-09-27T02:27:00.812Z,12.85
2016-09-27T02:27:41.352Z,12.82
2016-09-27T02:28:21.902Z,12.86
2016-09-27T02:29:02.456Z,12.86
2016-09-27T02:29:43.003Z,12.79
2016-09-27T02:30:23.551Z,12.77
2016-09-27T02:31:04.096Z,12.78
2016-09-27T02:31:44.648Z,12.64
2016-09-27T02:32:25.189Z,12.72
2016-09-27T02:33:05.734Z,12.67
2016-09-27T02:33:46.279Z,12.72
2016-09-27T02:34:26.819Z,12.71
2016-09-27T02:35:07.362Z,12.7
2016-09-27T02:35:47.897Z,12.71
2016-09-27T02:36:28.441Z,12.68
2016-09-27T02:37:08.987Z,12.65
2016-09-27T02:37:49.533Z,12.68
2016-09-27T02:38:30.075Z,12.67
2016-09-27T02:39:10.640Z,12.7
2016-09-27T02:39:51.163Z,12.72
2016-09-27T02:40:31.712Z,12.68
2016-09-27T02:41:12.265Z,12.7
2016-09-27T02:41:52.818Z,12.67
2016-09-27T02:42:33.371Z,12.72
2016-09-27T02:43:13.918Z,12.71
2016-09-27T02:43:54.460Z,12.68
2016-09-27T02:44:35.006Z,12.65
2016-09-27T02:45:15.548Z,12.68
2016-09-27T02:45:56.093Z,12.7
2016-09-27T02:46:36.642Z,12.6
2016-09-27T02:47:17.189Z,12.65
2016-09-27T02:47:57.726Z,12.6
2016-09-27T02:48:38.271Z,12.64
2016-09-27T02:49:18.810Z,12.54
2016-09-27T02:49:59.357Z,12.52
2016-09-27T02:50:39.902Z,12.56
2016-09-27T02:51:20.440Z,12.45
2016-09-27T02:52:00.983Z,12.46
2016-09-27T02:52:41.534Z,12.47
2016-09-27T02:53:22.071Z,12.41
2016-09-27T02:54:02.621Z,12.35
2016-09-27T02:54:43.164Z,12.32
2016-09-27T02:55:23.706Z,12.34
2016-09-27T02:56:04.244Z,12.31
2016-09-27T02:56:44.790Z,12.32
2016-09-27T02:57:25.332Z,12.34
2016-09-27T02:58:05.878Z,12.31
2016-09-27T02:58:46.429Z,12.38
2016-09-27T02:59:26.969Z,12.35
2016-09-27T03:00:07.508Z,12.31
2016-09-27T03:00:48.049Z,12.34
2016-09-27T03:01:28.603Z,12.32
2016-09-27T03:02:09.138Z,12.21
2016-09-27T03:02:49.687Z,12.28
2016-09-27T03:03:30.241Z,12.24
2016-09-27T03:04:10.792Z,12.23
2016-09-27T03:04:51.342Z,12.24
2016-09-27T03:05:31.888Z,12.24
2016-09-27T03:06:12.435Z,12.23
2016-09-27T03:06:52.985Z,12.24
2016-09-27T03:07:33.543Z,12.28
2016-09-27T03:08:14.086Z,12.24
2016-09-27T03:08:54.633Z,12.28
2016-09-27T03:09:35.167Z,12.23
2016-09-27T03:10:15.708Z,12.29
2016-09-27T03:10:56.238Z,12.21
2016-09-27T03:11:36.783Z,12.28
2016-09-27T03:12:17.347Z,12.12
2016-09-27T03:12:57.909Z,12.23
2016-09-27T03:13:38.454Z,12.16
2016-09-27T03:14:18.997Z,12.27
2016-09-27T03:14:59.536Z,12.14
2016-09-27T03:15:40.083Z,12.24
2016-09-27T03:16:20.619Z,12.16
2016-09-27T03:17:01.169Z,12.16
2016-09-27T03:17:41.715Z,12.13
2016-09-27T03:18:22.260Z,12.12
2016-09-27T03:19:02.807Z,12.12
2016-09-27T03:19:43.360Z,12.13
2016-09-27T03:20:23.905Z,12.2
2016-09-27T03:21:04.455Z,12.19
2016-09-27T03:21:45.003Z,12.13
2016-09-27T03:22:25.542Z,12.17
2016-09-27T03:23:06.088Z,12.17
2016-09-27T03:23:46.635Z,12.17
2016-09-27T03:24:27.182Z,12.13
2016-09-27T03:25:07.721Z,12.14
2016-09-27T03:25:48.267Z,12.19
2016-09-27T03:26:28.802Z,12.05
2016-09-27T03:27:09.349Z,12.14
2016-09-27T03:27:49.885Z,12.13
2016-09-27T03:28:30.433Z,12.02
2016-09-27T03:29:10.984Z,12.04
2016-09-27T03:29:51.533Z,12.01
2016-09-27T03:30:32.071Z,12.05
2016-09-27T03:31:12.617Z,11.99
2016-09-27T03:31:53.166Z,11.94
2016-09-27T03:32:33.704Z,12.04
2016-09-27T03:33:14.252Z,11.99
2016-09-27T03:33:54.800Z,11.98
2016-09-27T03:34:35.339Z,12.04
2016-09-27T03:35:15.884Z,11.9
2016-09-27T03:35:56.419Z,11.85
2016-09-27T03:36:36.961Z,11.96
2016-09-27T03:37:17.502Z,11.88
2016-09-27T03:37:58.043Z,11.91
2016-09-27T03:38:38.593Z,11.94
2016-09-27T03:39:19.155Z,11.91
2016-09-27T03:41:38.498Z,11.86
2016-09-27T03:42:19.039Z,11.82
2016-09-27T03:42:59.595Z,11.73
2016-09-27T03:43:40.142Z,11.85
2016-09-27T03:44:20.681Z,11.72
2016-09-27T03:45:01.228Z,11.8
2016-09-27T03:45:41.771Z,11.78
2016-09-27T03:46:22.315Z,11.82
2016-09-27T03:47:02.841Z,11.78
2016-09-27T03:47:43.390Z,11.78
2016-09-27T03:48:23.928Z,11.82
2016-09-27T03:49:04.462Z,11.69
2016-09-27T03:49:45.006Z,11.7
2016-09-27T03:50:25.556Z,11.75
2016-09-27T03:51:06.101Z,11.75
2016-09-27T03:51:46.642Z,11.72
2016-09-27T03:52:27.185Z,11.72
2016-09-27T03:53:07.734Z,11.76
2016-09-27T03:53:48.269Z,11.8
2016-09-27T03:54:28.801Z,11.73
2016-09-27T03:55:09.345Z,11.76
2016-09-27T03:55:49.883Z,11.73
2016-09-27T03:56:30.428Z,11.79
2016-09-27T03:57:10.965Z,11.75
2016-09-27T03:57:51.520Z,11.7
2016-09-27T03:58:32.064Z,11.72
2016-09-27T03:59:12.611Z,11.73
2016-09-27T03:59:53.161Z,11.72
2016-09-27T04:00:33.704Z,11.6
2016-09-27T04:01:14.245Z,11.6
2016-09-27T04:01:54.793Z,11.75
2016-09-27T04:02:35.334Z,11.73
2016-09-27T04:03:15.875Z,11.67
2016-09-27T04:03:56.404Z,11.67
2016-09-27T04:04:36.935Z,11.65
2016-09-27T04:05:17.486Z,11.6
2016-09-27T04:05:58.037Z,11.64
2016-09-27T04:06:38.568Z,11.62
2016-09-27T04:07:19.084Z,11.65
2016-09-27T04:07:59.630Z,11.62
2016-09-27T04:08:40.162Z,11.65
2016-09-27T04:09:20.716Z,11.62
2016-09-27T04:10:01.249Z,11.7
2016-09-27T04:10:41.785Z,11.62
2016-09-27T04:11:22.315Z,11.7
2016-09-27T04:12:02.855Z,11.62
2016-09-27T04:12:43.405Z,11.64
2016-09-27T04:13:23.952Z,11.65
2016-09-27T04:14:04.501Z,11.7
2016-09-27T04:14:45.042Z,11.55
2016-09-27T04:15:25.570Z,11.57
2016-09-27T04:16:06.107Z,11.57
2016-09-27T04:16:46.640Z,11.51
2016-09-27T04:17:27.187Z,11.54
2016-09-27T04:18:07.731Z,11.61
2016-09-27T04:18:48.269Z,11.55
2016-09-27T04:19:28.812Z,11.51
2016-09-27T04:20:09.352Z,11.54
2016-09-27T04:20:49.894Z,11.54
2016-09-27T04:21:30.442Z,11.52
2016-09-27T04:22:10.975Z,11.43
2016-09-27T04:22:52.108Z,11.43
2016-09-27T04:23:32.860Z,11.4
2016-09-27T04:24:14.487Z,11.37
2016-09-27T04:24:54.987Z,11.37
2016-09-27T04:25:35.535Z,11.33
2016-09-27T04:26:16.092Z,11.37
2016-09-27T04:26:56.633Z,11.39
2016-09-27T04:27:37.168Z,11.4
2016-09-27T04:28:17.702Z,11.43
2016-09-27T04:28:58.241Z,11.35
2016-09-27T04:29:38.787Z,11.29
2016-09-27T04:30:19.324Z,11.32
2016-09-27T04:30:59.854Z,11.44
2016-09-27T04:31:40.497Z,11.33
2016-09-27T04:32:21.162Z,11.37
2016-09-27T04:33:01.956Z,11.37
2016-09-27T04:33:42.574Z,11.39
2016-09-27T04:34:23.114Z,11.36
2016-09-27T04:35:03.676Z,11.37
2016-09-27T04:35:44.149Z,11.37
2016-09-27T04:36:24.833Z,11.35
2016-09-27T04:37:05.412Z,11.37
2016-09-27T04:37:46.032Z,11.37
2016-09-27T04:38:26.609Z,11.33
2016-09-27T04:39:07.194Z,11.33
2016-09-27T04:39:47.701Z,11.32
2016-09-27T04:40:28.205Z,11.36
2016-09-27T04:41:08.745Z,11.37
2016-09-27T04:41:49.283Z,11.39
2016-09-27T04:42:29.821Z,11.37
2016-09-27T04:43:10.366Z,11.29
2016-09-27T04:43:50.907Z,11.32
2016-09-27T04:44:31.449Z,11.36
2016-09-27T04:45:11.994Z,11.39
2016-09-27T04:45:52.530Z,11.36
2016-09-27T04:46:33.123Z,11.32
2016-09-27T04:47:13.671Z,11.32
2016-09-27T04:47:54.224Z,11.32
2016-09-27T04:48:34.766Z,11.39
2016-09-27T04:49:15.312Z,11.33
2016-09-27T04:49:55.847Z,11.36
2016-09-27T04:50:36.384Z,11.32
2016-09-27T04:51:16.915Z,11.39
2016-09-27T04:51:57.459Z,11.29
2016-09-27T04:52:37.995Z,11.39
2016-09-27T04:53:18.542Z,11.37
2016-09-27T04:53:59.096Z,11.36
2016-09-27T04:54:39.720Z,11.29
2016-09-27T04:55:20.258Z,11.28
2016-09-27T04:56:00.790Z,11.28
2016-09-27T04:56:41.326Z,11.29
2016-09-27T04:57:21.871Z,11.35
2016-09-27T04:58:02.402Z,11.33
2016-09-27T04:58:42.950Z,11.25
2016-09-27T04:59:23.489Z,11.29
2016-09-27T05:00:04.038Z,11.27
2016-09-27T05:00:44.574Z,11.33
2016-09-27T05:01:25.116Z,11.29
2016-09-27T05:02:05.670Z,11.39
2016-09-27T05:02:46.216Z,11.29
2016-09-27T05:03:26.760Z,11.35
2016-09-27T05:04:07.312Z,11.36
2016-09-27T05:04:47.868Z,11.32
2016-09-27T05:05:28.403Z,11.37
2016-09-27T05:06:08.950Z,11.33
2016-09-27T05:06:49.486Z,11.37
2016-09-27T05:07:30.032Z,11.35
2016-09-27T05:08:10.572Z,11.32
2016-09-27T05:08:51.127Z,11.35
2016-09-27T05:09:31.662Z,11.28
2016-09-27T05:10:12.236Z,11.29
2016-09-27T05:10:52.751Z,11.33
2016-09-27T05:11:33.298Z,11.28
2016-09-27T05:12:13.853Z,11.29
2016-09-27T05:12:54.401Z,11.29
2016-09-27T05:13:34.947Z,11.28
2016-09-27T05:14:15.487Z,11.29
2016-09-27T05:14:56.052Z,11.32
2016-09-27T05:15:36.594Z,11.32
2016-09-27T05:16:17.134Z,11.25
2016-09-27T05:16:57.669Z,11.35
2016-09-27T05:17:38.211Z,11.29
2016-09-27T05:18:18.743Z,11.32
2016-09-27T05:18:59.274Z,11.29
2016-09-27T05:19:39.847Z,11.27
2016-09-27T05:20:20.363Z,11.24
2016-09-27T05:21:00.905Z,11.32
2016-09-27T05:21:41.435Z,11.27
2016-09-27T05:22:21.980Z,11.27
2016-09-27T05:23:02.525Z,11.29
2016-09-27T05:23:43.056Z,11.32
2016-09-27T05:24:23.608Z,11.32
2016-09-27T05:25:04.141Z,11.28
2016-09-27T05:25:44.677Z,11.29
2016-09-27T05:26:25.205Z,11.35
2016-09-27T05:27:05.749Z,11.37
2016-09-27T05:27:46.291Z,11.36
2016-09-27T05:28:26.838Z,11.39
2016-09-27T05:29:07.380Z,11.37
2016-09-27T05:29:47.906Z,11.33
2016-09-27T05:30:28.450Z,11.29
2016-09-27T05:31:09.046Z,11.32
2016-09-27T05:31:49.573Z,11.33
2016-09-27T05:32:30.109Z,11.35
2016-09-27T05:33:10.652Z,11.29
2016-09-27T05:33:51.185Z,11.35
2016-09-27T05:34:31.724Z,11.28
2016-09-27T05:35:12.280Z,11.32
2016-09-27T05:35:52.833Z,11.29
2016-09-27T05:36:33.382Z,11.36
2016-09-27T05:37:13.930Z,11.29
2016-09-27T05:37:54.479Z,11.32
2016-09-27T05:38:35.031Z,11.25
2016-09-27T05:39:15.577Z,11.32
2016-09-27T05:39:56.116Z,11.32
2016-09-27T05:40:36.660Z,11.28
2016-09-27T05:41:17.213Z,11.35
2016-09-27T05:41:57.756Z,11.36
2016-09-27T05:42:38.309Z,11.29
2016-09-27T05:43:18.853Z,11.39
2016-09-27T05:43:59.410Z,11.25
2016-09-27T05:44:39.958Z,11.24
2016-09-27T05:45:20.507Z,11.37
2016-09-27T05:46:01.049Z,11.35
2016-09-27T05:46:41.575Z,11.33
2016-09-27T05:47:22.120Z,11.37
2016-09-27T05:48:02.661Z,11.35
2016-09-27T05:48:43.205Z,11.4
2016-09-27T05:49:23.753Z,11.32
2016-09-27T05:50:04.294Z,11.29
2016-09-27T05:50:44.840Z,11.39
2016-09-27T05:51:25.381Z,11.28
2016-09-27T05:52:05.921Z,11.35
2016-09-27T05:52:46.454Z,11.33
2016-09-27T05:53:26.981Z,11.28
2016-09-27T05:54:07.516Z,11.29
2016-09-27T05:54:48.062Z,11.37
2016-09-27T05:55:28.614Z,11.37
2016-09-27T05:56:09.150Z,11.35
2016-09-27T05:56:49.693Z,11.42
2016-09-27T05:57:30.240Z,11.39
2016-09-27T05:58:10.799Z,11.39
2016-09-27T05:58:51.352Z,11.35
2016-09-27T05:59:31.900Z,11.37
2016-09-27T06:00:12.432Z,11.36
2016-09-27T06:00:52.976Z,11.37
2016-09-27T06:01:33.524Z,11.4
2016-09-27T06:02:14.073Z,11.43
2016-09-27T06:02:54.609Z,11.39
2016-09-27T06:03:35.151Z,11.43
2016-09-27T06:04:15.674Z,11.39
2016-09-27T06:04:56.223Z,11.43
2016-09-27T06:05:36.756Z,11.4
2016-09-27T06:06:17.314Z,11.39
2016-09-27T06:06:57.855Z,11.47
2016-09-27T06:07:38.406Z,11.44
2016-09-27T06:08:18.954Z,11.42
2016-09-27T06:08:59.500Z,11.39
2016-09-27T06:09:40.040Z,11.52
2016-09-27T06:10:20.612Z,11.37
2016-09-27T06:11:01.167Z,11.49
2016-09-27T06:11:41.712Z,11.52
2016-09-27T06:12:22.245Z,11.52
2016-09-27T06:13:02.790Z,11.52
2016-09-27T06:13:43.322Z,11.39
2016-09-27T06:14:23.868Z,11.55
2016-09-27T06:15:04.405Z,11.58
2016-09-27T06:15:44.948Z,11.54
2016-09-27T06:16:25.490Z,11.57
2016-09-27T06:17:06.045Z,11.49
2016-09-27T06:17:46.594Z,11.57
2016-09-27T06:18:27.156Z,11.52
2016-09-27T06:19:07.675Z,11.58
2016-09-27T06:19:48.212Z,11.52
2016-09-27T06:20:28.767Z,11.47
2016-09-27T06:21:09.312Z,11.57
2016-09-27T06:21:49.860Z,11.62
2016-09-27T06:22:30.403Z,11.62
2016-09-27T06:23:10.948Z,11.7
2016-09-27T06:23:51.483Z,11.76
2016-09-27T06:24:32.024Z,11.72
2016-09-27T06:25:12.555Z,11.73
2016-09-27T06:25:53.091Z,11.79
2016-09-27T06:26:33.644Z,11.76
2016-09-27T06:27:14.193Z,11.82
2016-09-27T06:27:54.732Z,11.78
2016-09-27T06:28:35.279Z,11.72
2016-09-27T06:29:15.829Z,11.88
2016-09-27T06:29:56.387Z,11.73
2016-09-27T06:30:36.925Z,11.76
2016-09-27T06:31:17.460Z,11.82
2016-09-27T06:31:58.011Z,11.8
2016-09-27T06:32:38.553Z,11.88
2016-09-27T06:33:19.095Z,11.85
2016-09-27T06:33:59.640Z,11.82
2016-09-27T06:34:40.181Z,11.82
2016-09-27T06:35:20.713Z,11.88
2016-09-27T06:36:01.246Z,11.86
2016-09-27T06:36:41.800Z,11.9
2016-09-27T06:37:22.343Z,11.95
2016-09-27T06:38:02.888Z,11.86
2016-09-27T06:38:43.437Z,11.85
2016-09-27T06:39:23.983Z,11.82
2016-09-27T06:40:04.532Z,11.9
2016-09-27T06:40:45.081Z,11.86
2016-09-27T06:41:25.621Z,11.9
2016-09-27T06:42:06.167Z,11.91
2016-09-27T06:42:46.712Z,11.88
2016-09-27T06:43:27.248Z,11.88
2016-09-27T06:44:07.796Z,11.91
2016-09-27T06:44:48.360Z,11.91
2016-09-27T06:45:28.881Z,11.91
2016-09-27T06:46:09.426Z,11.88
2016-09-27T06:46:49.966Z,11.98
2016-09-27T06:47:30.515Z,11.94
2016-09-27T06:48:11.060Z,11.99
2016-09-27T06:48:51.599Z,11.96
2016-09-27T06:49:32.149Z,12.05
2016-09-27T06:50:12.705Z,12.01
2016-09-27T06:50:53.236Z,12.04
2016-09-27T06:51:33.771Z,11.94
2016-09-27T06:52:14.325Z,11.98
2016-09-27T06:52:54.872Z,12.01
2016-09-27T06:53:35.422Z,12.01
2016-09-27T06:54:15.965Z,12.09
2016-09-27T06:54:56.501Z,12.07
2016-09-27T06:55:37.040Z,12.12
2016-09-27T06:56:17.584Z,12.09
2016-09-27T06:56:58.122Z,11.99
2016-09-27T06:57:38.673Z,12.09
2016-09-27T06:58:19.219Z,12.13
2016-09-27T06:58:59.756Z,12.13
2016-09-27T06:59:40.308Z,12.05
2016-09-27T07:00:20.855Z,11.99
2016-09-27T07:01:01.402Z,12.09
2016-09-27T07:01:41.947Z,11.98
2016-09-27T07:02:22.491Z,12.14
2016-09-27T07:03:03.038Z,12.1
2016-09-27T07:03:43.587Z,12.05
2016-09-27T07:04:24.144Z,12.19
2016-09-27T07:05:04.688Z,12.13
2016-09-27T07:05:45.240Z,12.16
2016-09-27T07:06:25.784Z,12.12
2016-09-27T07:07:06.334Z,12.19
2016-09-27T07:07:46.876Z,12.2
2016-09-27T07:08:27.420Z,12.13
2016-09-27T07:09:07.953Z,12.23
2016-09-27T07:09:48.487Z,12.14
2016-09-27T07:10:29.040Z,12.19
2016-09-27T07:11:09.589Z,12.23
2016-09-27T07:11:50.127Z,12.34
2016-09-27T07:12:30.673Z,12.27
2016-09-27T07:13:11.219Z,12.28
2016-09-27T07:13:51.756Z,12.37
2016-09-27T07:14:32.298Z,12.37
2016-09-27T07:15:12.850Z,12.35
2016-09-27T07:15:53.394Z,12.35
2016-09-27T07:16:33.948Z,12.39
2016-09-27T07:17:14.487Z,12.39
2016-09-27T07:17:55.032Z,12.47
2016-09-27T07:18:35.575Z,12.45
2016-09-27T07:19:16.112Z,12.52
2016-09-27T07:19:56.654Z,12.53
2016-09-27T07:20:37.196Z,12.56
2016-09-27T07:21:17.747Z,12.57
2016-09-27T07:21:58.295Z,12.62
2016-09-27T07:22:38.832Z,12.68
2016-09-27T07:23:19.380Z,12.65
2016-09-27T07:23:59.931Z,12.65
2016-09-27T07:24:40.483Z,12.7
2016-09-27T07:25:21.031Z,12.67
2016-09-27T07:26:01.567Z,12.64
2016-09-27T07:26:42.111Z,12.79
2016-09-27T07:27:22.661Z,12.78
2016-09-27T07:28:03.215Z,12.83
2016-09-27T07:28:43.749Z,12.96
2016-09-27T07:29:24.293Z,12.9
2016-09-27T07:30:04.842Z,12.95
2016-09-27T07:30:45.377Z,12.95
2016-09-27T07:31:25.917Z,12.93
2016-09-27T07:32:06.455Z,13.04
2016-09-27T07:32:47.000Z,12.96
2016-09-27T07:33:27.550Z,13.03
2016-09-27T07:34:08.094Z,13.03
2016-09-27T07:34:48.631Z,13.03
2016-09-27T07:35:29.179Z,13.04
2016-09-27T07:36:09.720Z,13.1
2016-09-27T07:36:50.268Z,13.12
2016-09-27T07:37:30.807Z,13.12
2016-09-27T07:38:11.352Z,13.15
2016-09-27T07:38:51.889Z,13.1
2016-09-27T07:39:32.432Z,13.15
2016-09-27T07:40:12.968Z,13.14
2016-09-27T07:40:53.517Z,13.17
2016-09-27T07:41:34.063Z,13.22
2016-09-27T07:42:14.607Z,13.25
2016-09-27T07:42:55.154Z,13.28
2016-09-27T07:43:35.702Z,13.3
2016-09-27T07:44:16.246Z,13.29
2016-09-27T07:44:56.790Z,13.25
2016-09-27T07:45:37.334Z,13.33
2016-09-27T07:46:17.881Z,13.33
2016-09-27T07:46:58.418Z,13.44
2016-09-27T07:47:38.949Z,13.42
2016-09-27T07:48:19.512Z,13.62
2016-09-27T07:49:00.057Z,13.54
2016-09-27T07:49:40.602Z,13.57
2016-09-27T07:50:21.144Z,13.52
2016-09-27T07:51:01.678Z,13.57
2016-09-27T07:51:42.226Z,13.67
2016-09-27T07:52:22.769Z,13.67
2016-09-27T07:53:03.317Z,13.66
2016-09-27T07:53:43.867Z,13.67
2016-09-27T07:54:24.415Z,13.7
2016-09-27T07:55:04.959Z,13.71
2016-09-27T07:55:45.503Z,13.69
2016-09-27T07:56:26.048Z,13.71
2016-09-27T07:57:06.592Z,13.67
2016-09-27T07:57:47.143Z,13.81
2016-09-27T07:58:27.688Z,13.79
2016-09-27T07:59:08.230Z,13.91
2016-09-27T07:59:48.784Z,13.79
2016-09-27T08:00:29.319Z,13.96
2016-09-27T08:01:09.857Z,13.91
2016-09-27T08:01:50.401Z,13.95
2016-09-27T08:02:30.941Z,14.04
2016-09-27T08:03:11.486Z,14.02
2016-09-27T08:03:52.029Z,14.04
2016-09-27T08:04:32.577Z,14.04
2016-09-27T08:05:13.132Z,14.02
2016-09-27T08:05:53.682Z,14.15
2016-09-27T08:06:34.229Z,14.04
2016-09-27T08:07:14.782Z,14.18
2016-09-27T08:07:55.331Z,14.17
2016-09-27T08:08:35.883Z,14.22
2016-09-27T08:09:16.446Z,14.15
2016-09-27T08:09:57.002Z,14.22
2016-09-27T08:10:37.535Z,14.32
2016-09-27T08:11:18.085Z,14.37
2016-09-27T08:11:58.639Z,14.36
2016-09-27T08:12:39.188Z,14.35
2016-09-27T08:13:19.737Z,14.5
2016-09-27T08:14:00.274Z,14.42
2016-09-27T08:14:40.816Z,14.51
2016-09-27T08:15:21.361Z,14.6
2016-09-27T08:16:01.907Z,14.6
2016-09-27T08:16:42.447Z,14.68
2016-09-27T08:17:22.994Z,14.69
2016-09-27T08:18:03.530Z,14.81
2016-09-27T08:18:44.078Z,14.81
2016-09-27T08:19:24.607Z,14.83
2016-09-27T08:20:05.156Z,14.8
2016-09-27T08:20:45.702Z,14.88
2016-09-27T08:21:26.248Z,14.98
2016-09-27T08:22:06.797Z,14.98
2016-09-27T08:22:47.338Z,14.94
2016-09-27T08:23:27.898Z,15.02
2016-09-27T08:24:08.449Z,15.03
2016-09-27T08:24:48.996Z,15.1
2016-09-27T08:25:29.546Z,15.07
2016-09-27T08:26:10.095Z,15.17
2016-09-27T08:26:50.650Z,15.17
2016-09-27T08:27:31.198Z,15.16
2016-09-27T08:28:11.745Z,15.17
2016-09-27T08:28:52.290Z,15.25
2016-09-27T08:29:32.837Z,15.32
2016-09-27T08:30:13.386Z,15.38
2016-09-27T08:30:53.935Z,15.41
2016-09-27T08:31:34.480Z,15.49
2016-09-27T08:32:15.027Z,15.49
2016-09-27T08:32:55.571Z,15.6
2016-09-27T08:33:36.114Z,15.57
2016-09-27T08:34:16.665Z,15.71
2016-09-27T08:34:57.200Z,15.8
2016-09-27T08:35:37.746Z,15.82
2016-09-27T08:36:18.293Z,15.93
2016-09-27T08:36:58.840Z,15.93
2016-09-27T08:37:39.389Z,15.92
2016-09-27T08:38:19.936Z,16.01
2016-09-27T08:39:00.485Z,16.02
2016-09-27T08:39:41.042Z,16.05
2016-09-27T08:40:21.587Z,15.97
2016-09-27T08:41:02.133Z,16.01
2016-09-27T08:41:42.687Z,16.05
2016-09-27T08:42:23.238Z,16.02
2016-09-27T08:43:03.784Z,16.09
2016-09-27T08:43:44.334Z,16.14
2016-09-27T08:44:24.874Z,16.17
2016-09-27T08:45:05.426Z,16.34